Time;durP1;ratioP1;P1;durP2;ratioP2;P2;SDS_P1;SDS_P2;PMS_P1;PMS_P2;Temp;Humidity;BMP_temperature;BMP_pressure;BME280_temperature;BME280_humidity;BME280_pressure;Samples;Min_cycle;Max_cycle;Signal;HPM_P1;HPM_P2
2021/12/11 00:01:24;;;;;;;7.00;1.90;;;8.30;83.60;;;;;;5098692;28;20019;-77
2021/12/11 00:03:58;;;;;;;8.10;2.22;;;8.30;83.70;;;;;;5107181;28;20098;-77
2021/12/11 00:06:28;;;;;;;5.80;2.13;;;8.30;83.80;;;;;;5094859;28;20069;-77
2021/12/11 00:08:57;;;;;;;5.93;1.98;;;8.30;83.80;;;;;;5110815;27;20065;-76
2021/12/11 00:11:34;;;;;;;10.88;2.40;;;8.30;84.00;;;;;;5107820;28;20069;-77
2021/12/11 00:14:03;;;;;;;8.75;2.35;;;8.20;83.70;;;;;;5107224;28;20022;-77
2021/12/11 00:16:32;;;;;;;6.38;1.60;;;8.20;83.80;;;;;;5107626;28;20080;-77
2021/12/11 00:19:07;;;;;;;6.70;1.55;;;8.20;83.90;;;;;;5110109;28;20543;-77
2021/12/11 00:21:33;;;;;;;4.22;1.67;;;8.10;83.90;;;;;;5109648;28;20024;-77
2021/12/11 00:24:05;;;;;;;6.18;1.67;;;8.20;84.00;;;;;;5107271;28;20448;-77
2021/12/11 00:26:36;;;;;;;6.95;2.00;;;8.20;83.80;;;;;;5107451;28;20040;-77
2021/12/11 00:29:04;;;;;;;5.07;1.80;;;8.10;83.80;;;;;;5107133;28;20053;-77
2021/12/11 00:31:31;;;;;;;5.00;1.70;;;8.10;84.80;;;;;;5107276;28;20028;-77
2021/12/11 00:33:57;;;;;;;5.93;1.80;;;8.00;83.80;;;;;;5109196;28;20111;-76
2021/12/11 00:36:31;;;;;;;7.65;1.92;;;8.00;84.20;;;;;;5109476;28;20080;-77
2021/12/11 00:39:08;;;;;;;7.88;1.67;;;8.00;84.40;;;;;;5107101;28;20016;-77
2021/12/11 00:41:35;;;;;;;5.30;1.67;;;8.10;84.50;;;;;;5107288;28;20036;-77
2021/12/11 00:44:02;;;;;;;10.45;2.30;;;8.10;84.20;;;;;;5106977;28;20495;-77
2021/12/11 00:46:29;;;;;;;5.30;1.80;;;8.10;84.00;;;;;;5107322;28;20028;-77
2021/12/11 00:49:11;;;;;;;7.63;1.88;;;8.10;83.90;;;;;;5109513;28;20076;-77
2021/12/11 00:51:37;;;;;;;9.65;2.10;;;8.00;84.60;;;;;;5109863;28;20019;-77
2021/12/11 00:54:03;;;;;;;6.47;1.73;;;8.00;84.00;;;;;;5106411;28;20054;-77
2021/12/11 00:56:40;;;;;;;7.00;1.88;;;8.10;84.50;;;;;;5107333;28;20028;-77
2021/12/11 00:59:12;;;;;;;7.38;2.10;;;8.20;84.30;;;;;;5107265;28;20106;-76
2021/12/11 01:01:51;;;;;;;7.38;2.05;;;8.30;84.20;;;;;;5111451;28;20073;-76
2021/12/11 01:04:41;;;;;;;7.82;1.85;;;8.20;84.10;;;;;;5107587;28;20031;-77
2021/12/11 01:07:20;;;;;;;6.50;1.98;;;8.30;84.00;;;;;;5107712;28;20061;-77
2021/12/11 01:09:53;;;;;;;5.80;2.10;;;8.30;84.10;;;;;;5106323;28;20518;-77
2021/12/11 01:12:25;;;;;;;6.22;1.70;;;8.30;83.70;;;;;;5108451;28;20035;-76
2021/12/11 01:15:05;;;;;;;4.75;1.60;;;8.20;83.80;;;;;;5097330;28;20122;-76
2021/12/11 01:17:43;;;;;;;6.97;1.80;;;8.20;84.10;;;;;;5112099;28;20043;-77
2021/12/11 01:20:24;;;;;;;9.00;2.20;;;8.20;84.20;;;;;;5110469;28;20024;-77
2021/12/11 01:22:51;;;;;;;7.13;1.50;;;8.10;84.00;;;;;;5111032;28;20094;-77
2021/12/11 01:25:24;;;;;;;6.95;1.48;;;8.20;84.20;;;;;;5093360;28;20482;-77
2021/12/11 01:27:54;;;;;;;5.00;1.58;;;8.10;84.00;;;;;;5110275;28;20028;-77
2021/12/11 01:30:27;;;;;;;5.90;1.60;;;8.10;84.40;;;;;;5111752;28;20023;-77
2021/12/11 01:32:53;;;;;;;4.75;1.40;;;8.20;84.50;;;;;;5110358;28;20028;-77
2021/12/11 01:35:20;;;;;;;4.82;1.42;;;8.20;84.40;;;;;;5110215;28;20117;-77
2021/12/11 01:37:48;;;;;;;8.25;1.60;;;8.20;84.20;;;;;;5110763;28;20024;-77
2021/12/11 01:40:17;;;;;;;5.70;1.33;;;8.20;84.60;;;;;;5111725;28;20028;-77
2021/12/11 01:42:43;;;;;;;7.00;1.92;;;8.20;84.60;;;;;;5113774;28;20026;-76
2021/12/11 01:45:14;;;;;;;4.78;1.65;;;8.30;84.70;;;;;;5110405;28;20038;-77
2021/12/11 01:47:42;;;;;;;5.07;1.60;;;8.30;84.60;;;;;;5109823;28;20034;-76
2021/12/11 01:50:32;;;;;;;7.53;1.85;;;8.30;84.70;;;;;;5106906;28;20396;-76
2021/12/11 01:53:06;;;;;;;7.78;2.10;;;8.30;84.60;;;;;;5110360;28;20073;-76
2021/12/11 01:55:46;;;;;;;6.50;1.70;;;8.30;84.80;;;;;;5110170;28;20044;-77
2021/12/11 01:58:16;;;;;;;6.32;1.75;;;8.30;84.60;;;;;;5111274;28;20119;-76
2021/12/11 02:00:49;;;;;;;3.97;1.60;;;8.40;84.60;;;;;;5113851;27;20023;-77
2021/12/11 02:03:20;;;;;;;3.33;1.33;;;8.40;84.70;;;;;;5098900;28;20047;-77
2021/12/11 02:05:47;;;;;;;5.03;1.80;;;8.40;84.50;;;;;;5109363;28;20031;-77
2021/12/11 02:08:17;;;;;;;7.78;1.40;;;8.40;84.50;;;;;;5111098;28;20111;-75
2021/12/11 02:11:11;;;;;;;3.15;1.20;;;8.40;84.90;;;;;;5110661;28;20035;-77
2021/12/11 02:13:44;;;;;;;6.00;1.40;;;8.40;84.80;;;;;;5103303;28;20027;-77
2021/12/11 02:16:38;;;;;;;4.88;1.55;;;8.40;84.90;;;;;;5112170;28;21049;-77
2021/12/11 02:19:17;;;;;;;6.47;1.40;;;8.50;85.00;;;;;;5111152;28;20556;-77
2021/12/11 02:21:46;;;;;;;4.70;1.27;;;8.50;84.80;;;;;;5113737;28;20039;-76
2021/12/11 02:24:16;;;;;;;5.15;1.23;;;8.50;84.90;;;;;;5110896;28;20027;-76
2021/12/11 02:26:42;;;;;;;6.65;1.35;;;8.50;84.90;;;;;;5108839;28;20074;-76
2021/12/11 02:29:13;;;;;;;7.18;1.55;;;8.40;84.90;;;;;;5113458;27;20093;-76
2021/12/11 02:31:54;;;;;;;4.45;1.40;;;8.40;85.00;;;;;;5109806;28;20031;-75
2021/12/11 02:34:27;;;;;;;3.75;1.30;;;8.50;85.10;;;;;;5094571;28;20364;-76
2021/12/11 02:36:58;;;;;;;;;;;8.50;85.20;;;;;;5110137;28;20035;-77
2021/12/11 02:39:46;;;;;;;5.03;1.40;;;8.60;85.10;;;;;;5133142;27;19911;-76
2021/12/11 02:42:37;;;;;;;10.18;1.30;;;8.60;84.80;;;;;;5110041;28;20024;-76
2021/12/11 02:45:19;;;;;;;3.05;1.10;;;8.60;84.50;;;;;;5108245;28;20047;-76
2021/12/11 02:47:52;;;;;;;5.78;1.30;;;8.60;84.80;;;;;;5109998;28;20032;-76
2021/12/11 02:50:53;;;;;;;5.68;1.30;;;8.60;84.80;;;;;;5107289;28;20073;-75
2021/12/11 02:53:33;;;;;;;2.22;0.90;;;8.60;84.90;;;;;;5029839;28;20119;-76
2021/12/11 02:56:18;;;;;;;6.13;1.40;;;8.60;85.10;;;;;;5030223;28;20049;-77
2021/12/11 02:58:49;;;;;;;4.57;1.13;;;8.60;85.10;;;;;;5029845;28;20518;-76
2021/12/11 03:01:25;;;;;;;4.88;1.20;;;8.60;85.00;;;;;;5015155;28;20433;-75
2021/12/11 03:04:11;;;;;;;6.63;1.73;;;8.50;84.70;;;;;;5026751;28;20052;-75
2021/12/11 03:06:42;;;;;;;5.65;1.30;;;8.40;84.80;;;;;;5015431;28;20092;-76
2021/12/11 03:09:13;;;;;;;5.43;1.45;;;8.30;84.90;;;;;;5028815;28;20049;-76
2021/12/11 03:11:39;;;;;;;5.05;1.15;;;8.30;85.40;;;;;;5029868;28;20025;-74
2021/12/11 03:14:12;;;;;;;4.18;1.40;;;8.30;85.70;;;;;;5009701;28;20022;-76
2021/12/11 03:16:40;;;;;;;4.40;1.40;;;8.40;85.70;;;;;;5013831;28;20026;-76
2021/12/11 03:19:08;;;;;;;4.22;1.20;;;8.40;85.40;;;;;;5030066;28;20060;-76
2021/12/11 03:21:36;;;;;;;4.25;1.50;;;8.40;85.50;;;;;;5013652;28;20065;-76
2021/12/11 03:24:05;;;;;;;5.28;1.55;;;8.40;85.50;;;;;;5023903;28;20030;-76
2021/12/11 03:26:31;;;;;;;4.07;1.42;;;8.40;85.90;;;;;;5023987;28;20033;-76
2021/12/11 03:28:57;;;;;;;4.97;1.33;;;8.40;85.50;;;;;;5069440;28;20043;-75
2021/12/11 03:31:22;;;;;;;3.97;1.30;;;8.40;85.70;;;;;;5109528;28;20786;-76
2021/12/11 03:33:53;;;;;;;3.60;1.23;;;8.50;86.00;;;;;;5113112;28;20059;-76
2021/12/11 03:36:21;;;;;;;3.67;1.40;;;8.40;85.40;;;;;;5108831;28;20127;-76
2021/12/11 03:38:53;;;;;;;5.40;1.17;;;8.40;85.90;;;;;;5095419;28;20414;-76
2021/12/11 03:41:19;;;;;;;4.40;1.27;;;8.40;85.50;;;;;;5108893;28;20392;-77
2021/12/11 03:43:45;;;;;;;7.63;1.65;;;8.40;85.40;;;;;;5108576;28;20028;-77
2021/12/11 03:46:12;;;;;;;3.95;1.30;;;8.40;85.50;;;;;;5110446;28;20535;-76
2021/12/11 03:48:42;;;;;;;4.30;1.67;;;8.30;85.70;;;;;;5097730;28;20412;-76
2021/12/11 03:51:10;;;;;;;6.65;1.98;;;8.40;85.70;;;;;;5108600;28;20024;-75
2021/12/11 03:53:36;;;;;;;5.00;1.50;;;8.40;85.70;;;;;;5108912;28;20059;-76
2021/12/11 03:56:06;;;;;;;4.22;1.48;;;8.40;85.80;;;;;;5093233;28;20058;-76
2021/12/11 03:58:32;;;;;;;5.32;1.52;;;8.40;85.70;;;;;;5108641;28;20503;-76
2021/12/11 04:01:26;;;;;;;5.18;1.63;;;8.40;85.50;;;;;;5113550;27;20026;-77
2021/12/11 04:03:59;;;;;;;5.10;1.90;;;8.40;86.30;;;;;;5105898;28;20392;-76
2021/12/11 04:06:26;;;;;;;5.93;1.60;;;8.40;85.60;;;;;;5111595;28;20035;-76
2021/12/11 04:08:54;;;;;;;4.32;1.48;;;8.40;85.70;;;;;;5108562;28;20019;-76
2021/12/11 04:11:27;;;;;;;6.47;1.55;;;8.40;85.70;;;;;;5108227;28;20020;-76
2021/12/11 04:13:57;;;;;;;4.82;1.50;;;8.40;85.80;;;;;;5108621;28;20050;-75
2021/12/11 04:16:24;;;;;;;7.72;1.92;;;8.40;86.00;;;;;;5092891;28;20522;-76
2021/12/11 04:18:50;;;;;;;5.50;1.80;;;8.40;86.30;;;;;;5112328;28;20031;-76
2021/12/11 04:21:16;;;;;;;5.55;1.70;;;8.30;85.60;;;;;;5108588;28;20035;-76
2021/12/11 04:23:43;;;;;;;5.68;1.85;;;8.30;86.20;;;;;;5108279;28;20019;-76
2021/12/11 04:26:11;;;;;;;7.63;2.00;;;8.30;85.80;;;;;;5108132;28;20035;-76
2021/12/11 04:28:46;;;;;;;6.80;1.77;;;8.30;85.90;;;;;;5108398;28;20384;-75
2021/12/11 04:31:17;;;;;;;6.22;1.60;;;8.30;86.10;;;;;;5092707;28;20488;-76
2021/12/11 04:33:48;;;;;;;6.47;1.92;;;8.20;86.20;;;;;;5111725;28;20504;-76
2021/12/11 04:36:21;;;;;;;4.68;1.40;;;8.20;86.20;;;;;;5108165;28;20028;-76
2021/12/11 04:38:48;;;;;;;5.18;1.55;;;8.20;86.00;;;;;;5108496;28;20524;-76
2021/12/11 04:41:18;;;;;;;6.10;1.83;;;8.20;86.10;;;;;;5094191;28;20043;-77
2021/12/11 04:43:47;;;;;;;4.28;1.40;;;8.20;86.20;;;;;;5108299;28;20099;-76
2021/12/11 04:46:16;;;;;;;4.95;1.63;;;8.20;86.20;;;;;;5109427;28;20016;-76
2021/12/11 04:49:14;;;;;;;4.93;1.65;;;8.20;85.70;;;;;;5114812;28;20561;-76
2021/12/11 04:54:49;;;;;;;4.82;1.58;;;8.10;86.10;;;;;;5076836;28;20512;-75
2021/12/11 05:00:16;;;;;;;5.75;1.60;;;8.10;86.20;;;;;;5075068;28;20032;-76
2021/12/11 05:11:03;;;;;;;5.43;2.50;;;8.20;86.20;;;;;;5076625;28;20039;-77
2021/12/11 05:13:29;;;;;;;4.38;2.00;;;8.20;86.20;;;;;;5058470;28;20111;-77
2021/12/11 05:16:01;;;;;;;5.28;1.90;;;8.20;86.20;;;;;;5075414;28;20047;-77
2021/12/11 05:18:29;;;;;;;5.47;1.60;;;8.20;86.20;;;;;;5076406;28;20036;-76
2021/12/11 05:20:58;;;;;;;6.25;1.70;;;8.20;86.20;;;;;;5074742;28;20040;-76
2021/12/11 05:23:25;;;;;;;3.72;1.60;;;8.20;86.10;;;;;;5074677;28;20463;-76
2021/12/11 05:25:51;;;;;;;5.50;1.92;;;8.20;86.00;;;;;;5074012;28;20027;-77
2021/12/11 05:28:18;;;;;;;4.68;1.60;;;8.10;86.20;;;;;;5072295;28;20033;-77
2021/12/11 05:30:47;;;;;;;4.82;1.55;;;8.20;86.20;;;;;;5072767;28;20028;-77
2021/12/11 05:33:14;;;;;;;5.70;1.58;;;8.20;86.20;;;;;;5099150;28;20032;-77
2021/12/11 05:35:40;;;;;;;4.65;1.50;;;8.20;86.20;;;;;;5111383;28;20030;-76
2021/12/11 05:38:08;;;;;;;4.30;1.65;;;8.20;86.50;;;;;;5111174;28;20088;-76
2021/12/11 05:40:37;;;;;;;4.47;1.70;;;8.30;86.60;;;;;;5111293;28;20115;-76
2021/12/11 05:43:04;;;;;;;8.55;2.13;;;8.30;86.50;;;;;;5097596;28;20046;-75
2021/12/11 05:45:30;;;;;;;4.97;1.55;;;8.30;86.20;;;;;;5112469;28;20028;-76
2021/12/11 05:47:56;;;;;;;6.60;1.75;;;8.30;86.00;;;;;;5111033;28;20039;-76
2021/12/11 05:50:30;;;;;;;5.32;1.70;;;8.30;86.30;;;;;;5111317;28;20026;-76
2021/12/11 05:52:56;;;;;;;5.55;1.65;;;8.30;86.20;;;;;;5110765;28;20020;-76
2021/12/11 05:55:23;;;;;;;4.03;1.40;;;8.30;86.20;;;;;;5111098;28;20097;-76
2021/12/11 05:57:53;;;;;;;4.57;2.00;;;8.30;86.20;;;;;;5114915;28;20024;-76
2021/12/11 06:00:29;;;;;;;5.93;1.50;;;8.30;86.20;;;;;;5110842;28;20039;-75
2021/12/11 06:02:55;;;;;;;5.82;1.73;;;8.40;86.30;;;;;;5113557;27;20054;-76
2021/12/11 06:05:21;;;;;;;5.20;1.75;;;8.40;86.10;;;;;;5110563;28;20019;-75
2021/12/11 06:07:47;;;;;;;8.10;2.05;;;8.40;86.30;;;;;;5110754;28;20043;-75
2021/12/11 06:10:17;;;;;;;5.50;1.88;;;8.40;86.10;;;;;;5112053;28;20095;-76
2021/12/11 06:12:45;;;;;;;6.05;2.00;;;8.40;86.20;;;;;;5114033;28;20103;-75
2021/12/11 06:15:11;;;;;;;4.45;1.80;;;8.40;86.10;;;;;;5110786;28;20024;-76
2021/12/11 06:17:38;;;;;;;6.43;1.80;;;8.40;85.90;;;;;;5097572;28;20029;-76
2021/12/11 06:20:06;;;;;;;4.65;1.60;;;8.40;85.90;;;;;;5110496;28;20032;-76
2021/12/11 06:22:34;;;;;;;5.22;1.88;;;8.30;86.10;;;;;;5110365;28;20035;-76
2021/12/11 06:25:04;;;;;;;6.57;2.00;;;8.40;86.30;;;;;;5112962;28;20030;-76
2021/12/11 06:27:30;;;;;;;3.33;1.80;;;8.30;86.20;;;;;;5111907;28;20552;-76
2021/12/11 06:29:57;;;;;;;5.82;1.85;;;8.40;86.30;;;;;;5110505;28;20016;-76
2021/12/11 06:32:24;;;;;;;5.13;1.70;;;8.40;86.30;;;;;;5110318;28;20716;-75
2021/12/11 06:34:51;;;;;;;6.30;2.33;;;8.40;86.30;;;;;;5110938;28;20043;-76
2021/12/11 06:37:20;;;;;;;5.85;1.55;;;8.40;86.20;;;;;;5110741;28;20020;-76
2021/12/11 06:39:46;;;;;;;5.93;1.63;;;8.40;86.10;;;;;;5113631;28;20020;-76
2021/12/11 06:42:12;;;;;;;6.03;1.80;;;8.40;86.00;;;;;;5109980;28;20073;-76
2021/12/11 06:44:38;;;;;;;4.57;1.58;;;8.40;86.30;;;;;;5109941;28;20023;-77
2021/12/11 06:47:09;;;;;;;5.90;1.65;;;8.50;86.30;;;;;;5110228;28;20044;-76
2021/12/11 06:49:37;;;;;;;4.35;1.40;;;8.40;85.80;;;;;;5110277;28;20019;-77
2021/12/11 06:52:07;;;;;;;8.60;1.80;;;8.40;86.00;;;;;;5112301;28;20015;-76
2021/12/11 06:54:34;;;;;;;4.07;1.75;;;8.40;86.10;;;;;;5111626;28;20054;-76
2021/12/11 06:57:00;;;;;;;8.30;1.90;;;8.40;85.90;;;;;;5109734;28;20046;-76
2021/12/11 06:59:26;;;;;;;5.18;1.30;;;8.40;86.10;;;;;;5109865;28;20468;-76
2021/12/11 07:01:52;;;;;;;4.80;1.92;;;8.50;86.30;;;;;;5112346;27;20049;-75
2021/12/11 07:04:18;;;;;;;6.88;2.05;;;8.50;86.30;;;;;;5109848;28;20032;-76
2021/12/11 07:06:48;;;;;;;6.03;1.88;;;8.50;85.90;;;;;;5112566;28;20036;-76
2021/12/11 07:09:15;;;;;;;7.05;1.80;;;8.50;85.90;;;;;;5109584;28;20110;-75
2021/12/11 07:11:44;;;;;;;7.53;1.65;;;8.40;85.80;;;;;;5108754;28;20024;-76
2021/12/11 07:14:15;;;;;;;5.55;1.58;;;8.40;85.80;;;;;;5108338;27;20465;-75
2021/12/11 07:16:41;;;;;;;6.15;1.90;;;8.40;85.80;;;;;;5113973;27;20028;-75
2021/12/11 07:19:08;;;;;;;6.82;1.98;;;8.40;86.00;;;;;;5120050;27;20091;-75
2021/12/11 07:21:34;;;;;;;5.97;1.75;;;8.40;86.20;;;;;;5130845;27;20036;-76
2021/12/11 07:24:00;;;;;;;5.55;1.70;;;8.40;86.20;;;;;;5113442;27;20046;-76
2021/12/11 07:26:32;;;;;;;5.90;1.65;;;8.30;86.20;;;;;;5108871;28;20055;-76
2021/12/11 07:29:03;;;;;;;6.18;1.55;;;8.40;86.30;;;;;;5109106;28;20073;-76
2021/12/11 07:31:29;;;;;;;5.13;1.63;;;8.30;86.20;;;;;;5110969;27;20039;-76
2021/12/11 07:33:55;;;;;;;3.40;1.42;;;8.40;86.30;;;;;;5112123;28;20027;-76
2021/12/11 07:36:22;;;;;;;8.60;1.92;;;8.40;85.90;;;;;;5108977;28;20415;-76
2021/12/11 07:38:49;;;;;;;7.82;2.00;;;8.30;85.40;;;;;;5108926;28;20032;-76
2021/12/11 07:41:16;;;;;;;6.00;1.90;;;8.30;85.80;;;;;;5108872;28;20115;-76
2021/12/11 07:43:45;;;;;;;6.47;2.28;;;8.20;86.20;;;;;;5108740;28;20031;-75
2021/12/11 07:46:14;;;;;;;5.53;1.90;;;8.30;86.20;;;;;;5110727;28;20170;-76
2021/12/11 07:48:41;;;;;;;5.65;1.88;;;8.20;86.20;;;;;;5119245;27;20027;-76
2021/12/11 07:51:08;;;;;;;6.28;1.70;;;8.20;86.20;;;;;;5109628;27;20020;-76
2021/12/11 07:53:34;;;;;;;5.18;1.63;;;8.20;86.10;;;;;;5108695;28;20032;-76
2021/12/11 07:55:59;;;;;;;5.85;1.80;;;8.20;86.20;;;;;;5108417;28;20041;-77
2021/12/11 07:58:26;;;;;;;3.00;1.35;;;8.20;86.20;;;;;;5108269;28;20022;-76
2021/12/11 08:00:52;;;;;;;6.35;1.63;;;8.20;86.20;;;;;;5111757;27;20061;-77
2021/12/11 08:03:18;;;;;;;6.13;1.98;;;8.10;86.10;;;;;;5097057;28;20032;-76
2021/12/11 08:05:48;;;;;;;6.57;1.98;;;8.20;86.40;;;;;;5104223;28;20426;-76
2021/12/11 08:08:15;;;;;;;6.78;1.95;;;8.20;86.20;;;;;;5110240;28;20119;-76
2021/12/11 08:10:44;;;;;;;6.43;1.85;;;8.20;86.20;;;;;;5108232;28;20146;-77
2021/12/11 08:13:11;;;;;;;7.75;1.92;;;8.20;86.20;;;;;;5109111;28;20034;-76
2021/12/11 08:15:38;;;;;;;6.78;1.83;;;8.30;86.20;;;;;;5110617;28;20114;-76
2021/12/11 08:18:07;;;;;;;6.03;2.05;;;8.30;86.20;;;;;;5108618;28;20518;-76
2021/12/11 08:20:34;;;;;;;7.68;1.60;;;8.30;86.20;;;;;;5111169;28;20024;-76
2021/12/11 08:23:00;;;;;;;6.15;2.05;;;8.30;86.50;;;;;;5109896;28;20513;-76
2021/12/11 08:25:29;;;;;;;6.32;1.92;;;8.30;86.40;;;;;;5091248;28;20114;-75
2021/12/11 08:27:56;;;;;;;5.40;1.90;;;8.40;86.40;;;;;;5098757;28;20123;-75
2021/12/11 08:30:24;;;;;;;8.02;2.08;;;8.40;86.30;;;;;;5111544;28;20055;-75
2021/12/11 08:32:50;;;;;;;4.38;2.05;;;8.50;86.30;;;;;;5110020;28;20451;-76
2021/12/11 08:35:16;;;;;;;6.13;1.90;;;8.50;86.30;;;;;;5108092;28;20055;-75
2021/12/11 08:37:44;;;;;;;5.43;2.03;;;8.50;86.30;;;;;;5092606;28;20069;-75
2021/12/11 08:40:14;;;;;;;4.90;1.75;;;8.60;86.40;;;;;;5117637;28;20413;-75
2021/12/11 08:42:40;;;;;;;5.13;2.00;;;8.60;86.20;;;;;;5125033;27;20031;-75
2021/12/11 08:45:13;;;;;;;5.70;1.67;;;8.70;86.20;;;;;;5109400;28;20050;-76
2021/12/11 08:47:41;;;;;;;5.82;2.13;;;8.60;85.40;;;;;;5107590;28;20035;-75
2021/12/11 08:50:11;;;;;;;6.32;2.42;;;8.60;85.70;;;;;;5107799;28;20028;-75
2021/12/11 08:52:40;;;;;;;6.22;2.15;;;8.70;85.60;;;;;;5090101;28;20073;-76
2021/12/11 08:55:10;;;;;;;4.65;2.35;;;8.70;85.90;;;;;;5119853;28;20463;-78
2021/12/11 08:57:39;;;;;;;6.15;2.17;;;8.60;85.10;;;;;;5110113;28;20027;-78
2021/12/11 09:00:24;;;;;;;10.15;2.80;;;8.60;85.50;;;;;;5107539;28;20427;-77
2021/12/11 09:03:02;;;;;;;8.00;2.38;;;8.60;86.00;;;;;;5110103;28;20024;-75
2021/12/11 09:05:46;;;;;;;9.10;2.15;;;8.60;85.50;;;;;;5094361;28;20734;-76
2021/12/11 09:08:23;;;;;;;6.72;2.50;;;8.70;85.40;;;;;;5107320;28;20027;-75
2021/12/11 09:11:02;;;;;;;5.97;2.47;;;8.70;86.10;;;;;;5108168;28;20023;-76
2021/12/11 09:13:33;;;;;;;7.35;2.05;;;8.80;85.80;;;;;;5108147;28;20059;-78
2021/12/11 09:16:03;;;;;;;5.85;2.15;;;8.90;85.80;;;;;;5093835;28;20067;-66
2021/12/11 09:18:35;;;;;;;7.22;2.20;;;8.90;85.30;;;;;;5109101;28;20035;-66
2021/12/11 09:21:20;;;;;;;6.07;1.90;;;8.90;85.50;;;;;;5106694;28;20107;-63
2021/12/11 09:23:55;;;;;;;4.93;1.83;;;8.90;85.20;;;;;;5109603;28;20020;-64
2021/12/11 09:26:30;;;;;;;5.90;1.90;;;8.90;85.10;;;;;;5109133;28;20077;-63
2021/12/11 09:29:14;;;;;;;6.07;1.73;;;8.80;85.10;;;;;;5108993;28;20111;-64
2021/12/11 09:31:45;;;;;;;7.30;2.15;;;8.90;85.60;;;;;;5105432;28;20602;-64
2021/12/11 09:34:22;;;;;;;5.20;2.05;;;8.90;85.80;;;;;;5108955;28;20039;-65
2021/12/11 09:36:54;;;;;;;7.75;2.33;;;8.90;86.10;;;;;;5110495;28;20100;-65
2021/12/11 09:39:25;;;;;;;9.48;2.75;;;9.10;86.60;;;;;;5105820;28;20412;-64
2021/12/11 09:41:51;;;;;;;8.25;2.50;;;9.20;85.50;;;;;;5126786;27;20022;-64
2021/12/11 09:44:40;;;;;;;6.60;2.20;;;9.20;85.30;;;;;;5113351;27;20031;-63
2021/12/11 09:47:09;;;;;;;7.18;2.22;;;9.20;85.30;;;;;;5121256;27;20036;-63
2021/12/11 09:49:39;;;;;;;7.78;2.35;;;9.20;85.00;;;;;;5114492;27;20028;-62
2021/12/11 09:52:23;;;;;;;6.65;2.55;;;9.30;85.70;;;;;;5120014;27;20031;-63
2021/12/11 09:54:52;;;;;;;7.45;2.30;;;9.30;85.70;;;;;;5117695;27;20047;-64
2021/12/11 09:57:21;;;;;;;7.13;2.47;;;9.30;85.30;;;;;;5115836;27;20027;-66
2021/12/11 09:59:49;;;;;;;7.65;2.40;;;9.30;85.70;;;;;;5116612;27;20047;-66
2021/12/11 10:02:24;;;;;;;5.95;2.33;;;9.40;85.50;;;;;;5099228;28;20035;-67
2021/12/11 10:05:29;;;;;;;6.75;2.22;;;9.40;86.20;;;;;;5110840;28;20030;-65
2021/12/11 10:11:36;;;;;;;6.47;2.28;;;9.60;85.80;;;;;;5109051;28;20034;-62
2021/12/11 10:14:13;;;;;;;5.80;2.50;;;9.60;85.50;;;;;;5013240;28;20041;-66
2021/12/11 10:16:43;;;;;;;6.72;2.38;;;9.70;85.10;;;;;;5026483;28;20521;-64
2021/12/11 10:19:11;;;;;;;7.00;2.38;;;9.70;86.20;;;;;;5011762;28;20037;-62
2021/12/11 10:21:54;;;;;;;7.80;2.60;;;9.70;85.00;;;;;;5015428;28;20026;-62
2021/12/11 10:24:24;;;;;;;9.65;2.67;;;9.80;85.50;;;;;;5004642;28;20045;-62
2021/12/11 10:26:53;;;;;;;10.02;2.50;;;9.80;85.40;;;;;;5018562;28;20517;-62
2021/12/11 10:29:19;;;;;;;7.25;2.67;;;9.90;85.30;;;;;;5014355;28;20511;-62
2021/12/11 10:32:01;;;;;;;7.20;2.47;;;9.90;84.50;;;;;;5013368;28;20068;-62
2021/12/11 10:34:29;;;;;;;7.07;2.83;;;9.90;85.30;;;;;;4979496;28;20041;-58
2021/12/11 10:37:07;;;;;;;8.85;2.63;;;10.00;85.00;;;;;;4997425;28;20030;-58
2021/12/11 10:39:35;;;;;;;7.15;3.17;;;10.10;85.10;;;;;;5013330;28;20507;-62
2021/12/11 10:42:01;;;;;;;12.52;7.28;;;10.20;84.90;;;;;;5014278;28;20029;-64
2021/12/11 10:44:31;;;;;;;10.20;3.75;;;10.20;84.90;;;;;;5005178;28;20072;-66
2021/12/11 10:47:07;;;;;;;9.18;4.32;;;10.30;86.00;;;;;;5013765;28;20030;-67
2021/12/11 10:49:34;;;;;;;8.02;3.20;;;10.30;85.00;;;;;;5053035;28;20024;-66
2021/12/11 10:52:16;;;;;;;10.27;3.00;;;10.30;84.40;;;;;;5125602;27;20429;-67
2021/12/11 10:54:42;;;;;;;8.02;2.53;;;10.30;84.40;;;;;;5113242;27;20092;-66
2021/12/11 10:57:08;;;;;;;8.48;2.53;;;10.30;84.40;;;;;;5111797;27;20076;-63
2021/12/11 10:59:40;;;;;;;10.35;3.05;;;10.30;84.60;;;;;;5109248;28;20054;-66
2021/12/11 11:02:15;;;;;;;6.03;2.60;;;10.30;84.40;;;;;;5096582;28;20035;-67
2021/12/11 11:04:48;;;;;;;7.22;2.90;;;10.30;84.40;;;;;;5109466;28;20031;-65
2021/12/11 11:07:14;;;;;;;6.07;2.50;;;10.30;84.70;;;;;;5110592;28;20035;-66
2021/12/11 11:09:41;;;;;;;7.70;2.45;;;10.30;84.60;;;;;;5095853;28;20024;-67
2021/12/11 11:12:12;;;;;;;7.90;2.90;;;10.30;84.60;;;;;;5107609;28;20031;-64
2021/12/11 11:14:38;;;;;;;6.18;1.90;;;10.30;84.90;;;;;;5095114;28;20031;-63
2021/12/11 11:17:11;;;;;;;7.78;2.25;;;10.30;85.00;;;;;;5109225;28;20385;-62
2021/12/11 11:19:40;;;;;;;6.28;2.47;;;10.40;86.00;;;;;;5091042;28;20057;-67
2021/12/11 11:22:10;;;;;;;8.90;2.72;;;10.40;85.30;;;;;;5108256;28;20031;-62
2021/12/11 11:24:45;;;;;;;5.65;2.10;;;10.50;85.10;;;;;;5087302;28;20477;-62
2021/12/11 11:27:11;;;;;;;7.70;2.50;;;10.50;84.90;;;;;;5110897;27;20533;-62
2021/12/11 11:29:39;;;;;;;8.15;2.63;;;10.50;85.20;;;;;;5115488;27;20024;-61
2021/12/11 11:32:11;;;;;;;8.50;2.60;;;10.50;85.20;;;;;;5112922;27;20031;-61
2021/12/11 11:34:40;;;;;;;9.48;2.10;;;10.60;85.30;;;;;;5110418;27;20034;-68
2021/12/11 11:37:09;;;;;;;6.45;2.50;;;10.80;86.40;;;;;;5110855;28;20112;-66
2021/12/11 11:39:35;;;;;;;8.30;2.28;;;10.80;85.00;;;;;;5109556;28;20019;-67
2021/12/11 11:42:04;;;;;;;6.10;2.22;;;10.80;84.60;;;;;;5114646;27;20102;-65
2021/12/11 11:44:31;;;;;;;7.07;2.10;;;10.80;84.30;;;;;;5096461;28;20023;-63
2021/12/11 11:47:03;;;;;;;4.65;1.70;;;10.60;84.50;;;;;;5094721;27;20122;-63
2021/12/11 11:49:33;;;;;;;8.63;1.90;;;10.70;85.10;;;;;;5111653;27;20169;-64
2021/12/11 11:52:08;;;;;;;5.20;2.13;;;10.70;84.80;;;;;;5114098;27;20270;-62
2021/12/11 11:54:37;;;;;;;5.00;1.63;;;10.80;85.00;;;;;;5121727;27;20462;-66
2021/12/11 11:57:33;;;;;;;4.90;1.73;;;10.80;85.00;;;;;;5112604;27;20368;-64
2021/12/11 12:00:01;;;;;;;4.60;1.70;;;10.80;85.00;;;;;;5109545;27;20035;-63
2021/12/11 12:02:30;;;;;;;6.68;1.70;;;10.80;84.60;;;;;;5118255;27;20026;-63
2021/12/11 12:04:59;;;;;;;6.72;3.33;;;10.80;85.00;;;;;;5110073;27;20084;-64
2021/12/11 12:07:29;;;;;;;8.57;2.33;;;10.80;85.10;;;;;;5121479;27;20108;-63
2021/12/11 12:10:03;;;;;;;7.82;2.00;;;10.90;85.30;;;;;;5099725;27;20164;-63
2021/12/11 12:12:29;;;;;;;9.00;2.22;;;10.90;84.90;;;;;;5118184;27;20020;-63
2021/12/11 12:14:56;;;;;;;5.20;1.85;;;10.90;84.50;;;;;;5117046;27;20022;-63
2021/12/11 12:17:29;;;;;;;7.40;2.05;;;11.00;85.20;;;;;;5110414;28;20038;-63
2021/12/11 12:19:58;;;;;;;7.07;2.35;;;11.00;84.80;;;;;;5108129;28;20054;-63
2021/12/11 12:22:26;;;;;;;8.80;1.88;;;11.10;84.80;;;;;;5106378;28;20112;-63
2021/12/11 12:24:55;;;;;;;7.75;1.90;;;11.10;84.90;;;;;;5118626;28;20014;-62
2021/12/11 12:27:24;;;;;;;6.88;2.00;;;11.10;84.50;;;;;;5108732;28;20031;-62
2021/12/11 12:29:51;;;;;;;10.05;2.03;;;11.10;84.40;;;;;;5111149;28;20034;-62
2021/12/11 12:32:22;;;;;;;5.80;1.98;;;11.00;84.20;;;;;;5112726;28;20023;-62
2021/12/11 12:34:49;;;;;;;7.97;2.17;;;10.90;84.40;;;;;;5112318;28;20506;-61
2021/12/11 12:37:15;;;;;;;7.60;2.20;;;11.00;84.70;;;;;;5117584;28;20492;-63
2021/12/11 12:39:45;;;;;;;7.15;2.00;;;11.00;84.80;;;;;;5110545;28;20068;-67
2021/12/11 12:42:18;;;;;;;9.43;2.05;;;10.90;84.60;;;;;;5112715;28;20053;-64
2021/12/11 12:44:51;;;;;;;8.27;2.20;;;11.00;85.00;;;;;;5110085;28;20110;-61
2021/12/11 12:47:33;;;;;;;11.57;2.38;;;11.00;85.20;;;;;;5108186;28;20079;-62
2021/12/11 12:50:01;;;;;;;5.85;2.10;;;11.00;85.20;;;;;;5111145;28;20034;-62
2021/12/11 12:52:34;;;;;;;6.40;2.17;;;11.00;84.60;;;;;;5109995;28;20038;-62
2021/12/11 12:55:05;;;;;;;6.80;2.35;;;11.00;85.90;;;;;;5110379;28;20142;-62
2021/12/11 12:57:41;;;;;;;9.93;2.40;;;11.00;84.90;;;;;;5121701;28;20069;-62
2021/12/11 13:00:31;;;;;;;8.98;1.95;;;11.00;84.80;;;;;;5110312;27;20036;-62
2021/12/11 13:03:05;;;;;;;6.85;1.73;;;11.00;85.00;;;;;;5109156;28;20115;-61
2021/12/11 13:05:36;;;;;;;4.43;1.90;;;11.00;84.90;;;;;;5109418;28;20098;-59
2021/12/11 13:08:10;;;;;;;5.93;1.55;;;11.10;85.20;;;;;;5118374;27;20032;-60
2021/12/11 13:10:47;;;;;;;6.47;2.30;;;11.10;85.40;;;;;;5113477;28;20408;-60
2021/12/11 13:13:15;;;;;;;6.40;2.08;;;11.20;85.20;;;;;;5113461;28;20668;-61
2021/12/11 13:15:53;;;;;;;9.02;2.00;;;11.20;85.40;;;;;;5115585;28;20011;-61
2021/12/11 13:18:23;;;;;;;4.22;1.58;;;11.10;84.60;;;;;;5112241;28;20466;-61
2021/12/11 13:21:05;;;;;;;6.25;1.85;;;11.10;84.90;;;;;;5113430;28;20059;-60
2021/12/11 13:23:32;;;;;;;5.97;1.92;;;11.20;84.80;;;;;;5113119;28;20078;-60
2021/12/11 13:26:01;;;;;;;6.18;1.95;;;11.30;84.60;;;;;;5113359;28;20024;-61
2021/12/11 13:28:31;;;;;;;6.53;1.73;;;11.20;84.40;;;;;;5113509;28;20039;-61
2021/12/11 13:31:06;;;;;;;8.23;2.00;;;11.20;84.70;;;;;;5114899;28;20019;-61
2021/12/11 13:33:32;;;;;;;7.68;2.30;;;11.30;84.40;;;;;;5113324;28;20059;-61